Time;durP1;ratioP1;P1;durP2;ratioP2;P2;SDS_P1;SDS_P2;PMS_P1;PMS_P2;Temp;Humidity;BMP_temperature;BMP_pressure;BME280_temperature;BME280_humidity;BME280_pressure;Samples;Min_cycle;Max_cycle;Signal;HPM_P1;HPM_P2
2023/11/06 00:01:40;;;;;;;10.80;1.98;;;;;;;;;;5035127;28;20022;-69
2023/11/06 00:04:06;;;;;;;7.32;2.08;;;;;;;;;;5016844;28;20471;-69
2023/11/06 00:06:31;;;;;;;6.82;1.73;;;;;;;;;;5035105;28;20064;-69
2023/11/06 00:08:56;;;;;;;5.90;1.77;;;;;;;;;;5035066;28;20040;-70
2023/11/06 00:11:22;;;;;;;6.18;1.33;;;;;;;;;;5034860;28;20033;-70
2023/11/06 00:13:47;;;;;;;6.38;1.65;;;;;;;;;;5035225;28;20017;-70
2023/11/06 00:16:12;;;;;;;6.40;1.70;;;;;;;;;;5034973;28;20026;-69
2023/11/06 00:18:38;;;;;;;4.40;1.42;;;;;;;;;;5034364;28;20021;-70
2023/11/06 00:21:05;;;;;;;6.75;1.27;;;;;;;;;;5035254;28;20108;-70
2023/11/06 00:23:30;;;;;;;2.53;1.38;;;;;;;;;;5034798;28;20482;-70
2023/11/06 00:25:55;;;;;;;6.00;1.58;;;;;;;;;;5000068;28;20033;-69
2023/11/06 00:28:20;;;;;;;4.15;1.73;;;;;;;;;;5020566;28;20060;-69
2023/11/06 00:30:46;;;;;;;4.35;1.40;;;;;;;;;;5027740;28;20026;-69
2023/11/06 00:33:12;;;;;;;2.55;1.15;;;;;;;;;;5032424;28;20029;-69
2023/11/06 00:35:38;;;;;;;6.45;1.60;;;;;;;;;;5034276;28;20013;-69
2023/11/06 00:38:03;;;;;;;7.72;1.58;;;;;;;;;;5034110;28;20482;-70
2023/11/06 00:40:29;;;;;;;6.13;2.17;;;;;;;;;;5032659;28;20017;-69
2023/11/06 00:42:54;;;;;;;6.93;1.52;;;;;;;;;;5004824;28;20438;-70
2023/11/06 00:45:19;;;;;;;2.00;1.17;;;;;;;;;;5014457;28;20018;-69
2023/11/06 00:47:46;;;;;;;5.50;1.60;;;;;;;;;;5014694;28;20025;-70
2023/11/06 00:50:12;;;;;;;3.33;1.70;;;;;;;;;;5014011;28;20034;-69
2023/11/06 00:52:37;;;;;;;2.85;1.50;;;;;;;;;;5014384;28;20417;-70
2023/11/06 00:55:02;;;;;;;5.18;1.20;;;;;;;;;;5014775;28;20022;-70
2023/11/06 00:57:29;;;;;;;4.43;1.40;;;;;;;;;;5017623;28;20097;-69
2023/11/06 00:59:54;;;;;;;3.42;1.45;;;;;;;;;;5014335;28;20591;-70
2023/11/06 01:02:20;;;;;;;3.90;1.35;;;;;;;;;;5028608;28;20117;-70
2023/11/06 01:04:45;;;;;;;2.40;1.27;;;;;;;;;;5029726;28;20026;-70
2023/11/06 01:07:11;;;;;;;3.25;1.40;;;;;;;;;;5014473;28;20030;-70
2023/11/06 01:09:36;;;;;;;4.35;1.90;;;;;;;;;;5029739;28;20398;-70
2023/11/06 01:12:02;;;;;;;8.73;2.05;;;;;;;;;;5017380;28;20036;-69
2023/11/06 01:14:27;;;;;;;12.52;2.22;;;;;;;;;;5033727;28;20064;-69
2023/11/06 01:16:53;;;;;;;3.85;1.10;;;;;;;;;;5033729;28;20189;-70
2023/11/06 01:19:20;;;;;;;5.03;1.85;;;;;;;;;;5033586;28;20026;-70
2023/11/06 01:21:45;;;;;;;9.85;2.00;;;;;;;;;;5016226;28;20021;-70
2023/11/06 01:24:11;;;;;;;11.13;2.00;;;;;;;;;;5033516;28;20032;-69
2023/11/06 01:26:36;;;;;;;8.82;1.63;;;;;;;;;;5033583;28;20498;-70
2023/11/06 01:29:02;;;;;;;9.55;2.42;;;;;;;;;;5033416;28;20029;-70
2023/11/06 01:31:28;;;;;;;9.05;1.85;;;;;;;;;;5033089;28;20510;-70
2023/11/06 01:33:53;;;;;;;11.15;2.78;;;;;;;;;;5017037;28;20038;-69
2023/11/06 01:36:19;;;;;;;8.13;1.85;;;;;;;;;;5013561;28;20499;-69
2023/11/06 01:38:44;;;;;;;7.93;2.05;;;;;;;;;;5013966;28;20112;-70
2023/11/06 01:41:09;;;;;;;12.27;1.95;;;;;;;;;;5013848;28;20040;-69
2023/11/06 01:43:35;;;;;;;7.93;2.10;;;;;;;;;;5015013;28;20033;-69
2023/11/06 01:46:01;;;;;;;14.20;3.70;;;;;;;;;;5013016;28;20069;-69
2023/11/06 01:48:27;;;;;;;7.45;1.52;;;;;;;;;;4994865;28;20168;-69
2023/11/06 01:50:53;;;;;;;8.13;1.95;;;;;;;;;;5014063;28;20034;-69
2023/11/06 01:53:19;;;;;;;5.40;1.30;;;;;;;;;;5013203;28;20076;-69
2023/11/06 01:55:46;;;;;;;5.82;1.75;;;;;;;;;;5002798;28;20490;-69
2023/11/06 01:58:12;;;;;;;5.30;1.50;;;;;;;;;;5023396;28;20029;-70
2023/11/06 02:00:39;;;;;;;4.43;1.58;;;;;;;;;;5032907;28;20025;-69
2023/11/06 02:03:07;;;;;;;3.90;1.55;;;;;;;;;;5013725;28;20025;-69
2023/11/06 02:06:19;;;;;;;5.07;1.38;;;;;;;;;;5015291;28;20497;-69
2023/11/06 02:08:44;;;;;;;8.68;1.63;;;;;;;;;;5006386;28;20037;-69
2023/11/06 02:11:10;;;;;;;9.70;2.35;;;;;;;;;;5012653;28;20030;-69
2023/11/06 02:13:35;;;;;;;8.63;1.83;;;;;;;;;;5005864;28;20503;-69
2023/11/06 02:16:01;;;;;;;5.78;1.75;;;;;;;;;;5021802;28;20761;-69
2023/11/06 02:18:26;;;;;;;4.03;1.33;;;;;;;;;;5032653;28;20026;-70
2023/11/06 02:20:55;;;;;;;6.20;1.13;;;;;;;;;;5032943;28;20091;-70
2023/11/06 02:23:29;;;;;;;1.08;0.88;;;;;;;;;;5015065;28;20025;-69
2023/11/06 02:25:55;;;;;;;1.23;0.80;;;;;;;;;;5032485;28;20633;-69
2023/11/06 02:28:20;;;;;;;1.40;1.05;;;;;;;;;;5032674;28;20108;-69
2023/11/06 02:30:45;;;;;;;2.70;0.88;;;;;;;;;;5032108;28;20025;-69
2023/11/06 02:33:11;;;;;;;0.63;0.63;;;;;;;;;;5032628;28;20013;-69
2023/11/06 02:35:38;;;;;;;3.78;0.88;;;;;;;;;;5032585;28;20026;-69
2023/11/06 02:38:04;;;;;;;3.45;1.02;;;;;;;;;;5032366;28;20028;-69
2023/11/06 02:40:29;;;;;;;7.80;1.90;;;;;;;;;;5025311;28;20029;-69
2023/11/06 02:42:54;;;;;;;2.25;1.20;;;;;;;;;;5021992;28;20021;-69
2023/11/06 02:45:20;;;;;;;10.10;1.85;;;;;;;;;;5025855;28;20025;-69
2023/11/06 02:47:45;;;;;;;2.60;1.27;;;;;;;;;;5014697;28;20390;-69
2023/11/06 02:50:14;;;;;;;3.58;1.63;;;;;;;;;;5014849;28;20401;-69
2023/11/06 02:52:42;;;;;;;3.85;1.13;;;;;;;;;;5032338;28;20049;-70
2023/11/06 02:55:08;;;;;;;1.50;1.00;;;;;;;;;;5031831;28;20490;-69
2023/11/06 02:57:36;;;;;;;2.20;0.98;;;;;;;;;;5032383;28;20025;-70
2023/11/06 03:00:06;;;;;;;1.85;0.93;;;;;;;;;;5033081;28;20059;-69
2023/11/06 03:02:32;;;;;;;1.67;1.15;;;;;;;;;;5036117;28;20091;-69
2023/11/06 03:04:58;;;;;;;3.28;1.10;;;;;;;;;;5035365;28;20021;-70
2023/11/06 03:07:23;;;;;;;1.58;1.10;;;;;;;;;;5036136;28;20078;-70
2023/11/06 03:09:48;;;;;;;3.72;1.02;;;;;;;;;;5035805;28;20021;-70
2023/11/06 03:12:14;;;;;;;1.40;1.10;;;;;;;;;;5035346;28;20025;-69
2023/11/06 03:14:40;;;;;;;3.83;1.15;;;;;;;;;;5035586;28;20018;-69
2023/11/06 03:17:05;;;;;;;3.95;1.50;;;;;;;;;;5018230;28;20021;-69
2023/11/06 03:19:30;;;;;;;2.28;1.15;;;;;;;;;;5035790;28;20105;-69
2023/11/06 03:21:55;;;;;;;8.70;1.40;;;;;;;;;;5035392;28;20024;-69
2023/11/06 03:24:21;;;;;;;13.25;2.15;;;;;;;;;;5035406;28;20021;-69
2023/11/06 03:26:46;;;;;;;6.82;1.50;;;;;;;;;;5035754;28;20045;-70
2023/11/06 03:29:11;;;;;;;5.55;1.60;;;;;;;;;;5034297;28;20120;-70
2023/11/06 03:31:37;;;;;;;2.85;1.25;;;;;;;;;;5035099;28;20018;-69
2023/11/06 03:34:03;;;;;;;3.80;1.70;;;;;;;;;;5025438;28;20029;-69
2023/11/06 03:36:28;;;;;;;9.63;2.05;;;;;;;;;;5015810;28;20032;-69
2023/11/06 03:38:53;;;;;;;12.63;2.40;;;;;;;;;;5018576;28;20033;-70
2023/11/06 03:41:19;;;;;;;6.82;1.42;;;;;;;;;;5035139;28;20072;-69
2023/11/06 03:43:48;;;;;;;5.18;1.42;;;;;;;;;;5035297;28;20030;-70
2023/11/06 03:46:14;;;;;;;11.57;1.63;;;;;;;;;;5035486;28;20038;-69
2023/11/06 03:48:39;;;;;;;10.82;1.98;;;;;;;;;;5032811;28;20028;-69
2023/11/06 03:51:04;;;;;;;14.05;2.08;;;;;;;;;;5015647;28;20541;-70
2023/11/06 03:53:30;;;;;;;7.95;2.17;;;;;;;;;;5017613;28;20116;-69
2023/11/06 03:55:55;;;;;;;9.95;1.70;;;;;;;;;;5017981;28;20046;-69
2023/11/06 03:58:20;;;;;;;12.20;1.77;;;;;;;;;;5015259;28;20033;-70
2023/11/06 04:00:46;;;;;;;8.68;1.45;;;;;;;;;;5016898;28;20390;-69
2023/11/06 04:03:12;;;;;;;6.78;1.65;;;;;;;;;;4997142;28;20076;-69
2023/11/06 04:05:37;;;;;;;11.68;1.90;;;;;;;;;;5015420;28;20435;-69
2023/11/06 04:08:02;;;;;;;10.80;1.80;;;;;;;;;;5035069;28;20025;-69
2023/11/06 04:10:27;;;;;;;4.18;1.40;;;;;;;;;;5034416;28;20458;-69
2023/11/06 04:12:53;;;;;;;16.25;1.77;;;;;;;;;;5033529;28;20041;-69
2023/11/06 04:15:18;;;;;;;8.27;2.00;;;;;;;;;;5035142;28;20112;-70
2023/11/06 04:17:43;;;;;;;4.10;1.55;;;;;;;;;;5016611;28;20083;-69
2023/11/06 04:20:10;;;;;;;9.73;2.13;;;;;;;;;;5017422;28;20514;-69
2023/11/06 04:22:35;;;;;;;12.52;2.17;;;;;;;;;;5014677;28;20368;-69
2023/11/06 04:25:02;;;;;;;9.93;2.03;;;;;;;;;;5023194;28;20099;-69
2023/11/06 04:27:28;;;;;;;12.75;3.08;;;;;;;;;;5019652;28;20061;-69
2023/11/06 04:29:53;;;;;;;11.65;1.60;;;;;;;;;;5002224;28;20057;-70
2023/11/06 04:32:18;;;;;;;8.15;1.52;;;;;;;;;;5017284;28;20030;-70
2023/11/06 04:34:44;;;;;;;8.20;1.50;;;;;;;;;;5026467;28;20032;-69
2023/11/06 04:37:12;;;;;;;4.15;1.25;;;;;;;;;;5034509;28;20032;-69
2023/11/06 04:39:38;;;;;;;6.68;1.15;;;;;;;;;;5034371;28;20036;-69
2023/11/06 04:42:05;;;;;;;5.68;2.05;;;;;;;;;;5034432;28;20040;-69
2023/11/06 04:44:30;;;;;;;8.25;1.30;;;;;;;;;;5015775;28;20075;-69
2023/11/06 04:46:55;;;;;;;6.13;1.13;;;;;;;;;;5033846;28;20100;-69
2023/11/06 04:49:20;;;;;;;8.27;1.77;;;;;;;;;;5034436;28;20032;-69
2023/11/06 04:51:46;;;;;;;5.72;1.70;;;;;;;;;;5033184;28;20083;-69
2023/11/06 04:54:11;;;;;;;7.20;2.22;;;;;;;;;;5032443;28;20474;-69
2023/11/06 04:56:42;;;;;;;8.75;2.05;;;;;;;;;;5033839;28;20083;-70
2023/11/06 04:59:07;;;;;;;8.00;1.70;;;;;;;;;;5016428;28;20025;-70
2023/11/06 05:01:35;;;;;;;4.93;1.50;;;;;;;;;;5033518;28;20021;-70
2023/11/06 05:04:01;;;;;;;11.95;2.00;;;;;;;;;;5034212;28;20084;-70
2023/11/06 05:06:26;;;;;;;12.00;2.85;;;;;;;;;;5034479;28;20033;-70
2023/11/06 05:08:51;;;;;;;9.77;2.15;;;;;;;;;;4999942;28;20029;-70
2023/11/06 05:11:17;;;;;;;3.22;1.52;;;;;;;;;;5015392;28;20025;-70
2023/11/06 05:13:42;;;;;;;13.68;2.20;;;;;;;;;;5071941;23;20058;-70
2023/11/06 05:16:08;;;;;;;5.88;1.50;;;;;;;;;;5054698;28;20039;-70
2023/11/06 05:18:33;;;;;;;11.00;2.08;;;;;;;;;;5053631;28;20079;-70
2023/11/06 05:20:59;;;;;;;1.92;1.38;;;;;;;;;;5054657;28;20021;-70
2023/11/06 05:23:24;;;;;;;7.03;1.73;;;;;;;;;;5054166;28;20025;-70
2023/11/06 05:25:49;;;;;;;14.77;2.22;;;;;;;;;;5053878;28;20033;-70
2023/11/06 05:28:14;;;;;;;7.82;2.30;;;;;;;;;;5053856;28;20020;-70
2023/11/06 05:30:40;;;;;;;13.27;2.10;;;;;;;;;;5053391;28;20017;-70
2023/11/06 05:33:06;;;;;;;19.83;3.03;;;;;;;;;;5054351;28;20029;-70
2023/11/06 05:35:32;;;;;;;17.38;3.10;;;;;;;;;;5053862;28;20025;-70
2023/11/06 05:37:57;;;;;;;16.52;2.90;;;;;;;;;;5036636;28;20028;-70
2023/11/06 05:40:22;;;;;;;17.63;2.70;;;;;;;;;;5054004;28;20048;-70
2023/11/06 05:42:48;;;;;;;16.30;2.00;;;;;;;;;;5053381;28;20024;-70
2023/11/06 05:45:14;;;;;;;7.30;2.17;;;;;;;;;;5053890;28;20465;-70
2023/11/06 05:47:40;;;;;;;8.20;2.00;;;;;;;;;;5019481;28;20029;-70
2023/11/06 05:50:06;;;;;;;5.68;2.78;;;;;;;;;;5053950;28;20032;-70
2023/11/06 05:52:32;;;;;;;5.82;1.40;;;;;;;;;;5035161;28;20025;-70
2023/11/06 05:54:58;;;;;;;5.90;1.88;;;;;;;;;;5035788;28;20016;-70
2023/11/06 05:57:23;;;;;;;4.28;1.75;;;;;;;;;;5053750;28;20039;-70
2023/11/06 05:59:48;;;;;;;8.63;1.73;;;;;;;;;;5019081;28;20027;-70
2023/11/06 06:02:13;;;;;;;8.52;1.83;;;;;;;;;;5052975;28;20025;-70
2023/11/06 06:04:39;;;;;;;8.05;1.83;;;;;;;;;;5053472;28;20394;-70
2023/11/06 06:07:07;;;;;;;11.43;2.50;;;;;;;;;;5053993;28;20540;-70
2023/11/06 06:09:33;;;;;;;6.68;1.50;;;;;;;;;;5035647;28;20552;-70
2023/11/06 06:11:59;;;;;;;4.97;2.03;;;;;;;;;;5035426;28;20072;-69
2023/11/06 06:14:24;;;;;;;5.13;1.98;;;;;;;;;;5053129;28;20028;-70
2023/11/06 06:16:49;;;;;;;4.38;1.80;;;;;;;;;;5053289;28;20421;-70
2023/11/06 06:19:16;;;;;;;3.30;1.48;;;;;;;;;;5053306;28;20113;-70
2023/11/06 06:21:41;;;;;;;3.10;1.60;;;;;;;;;;5053449;28;20100;-70
2023/11/06 06:24:08;;;;;;;3.97;1.67;;;;;;;;;;5034981;28;20558;-70
2023/11/06 06:26:34;;;;;;;7.75;1.83;;;;;;;;;;5053416;28;20032;-70
2023/11/06 06:28:59;;;;;;;10.00;2.13;;;;;;;;;;5030607;28;20021;-70
2023/11/06 06:31:26;;;;;;;8.93;1.45;;;;;;;;;;5039883;28;20025;-70
2023/11/06 06:33:52;;;;;;;7.30;1.70;;;;;;;;;;5033898;28;20025;-70
2023/11/06 06:36:17;;;;;;;9.23;1.85;;;;;;;;;;5036217;28;20025;-70
2023/11/06 06:38:42;;;;;;;7.72;1.50;;;;;;;;;;5041007;28;20021;-70
2023/11/06 06:41:07;;;;;;;4.80;1.52;;;;;;;;;;5037119;28;20018;-70
2023/11/06 06:43:34;;;;;;;3.47;1.45;;;;;;;;;;5037305;28;20029;-70
2023/11/06 06:46:00;;;;;;;4.90;2.25;;;;;;;;;;5056683;28;20502;-70
2023/11/06 06:48:25;;;;;;;11.45;1.65;;;;;;;;;;5056728;28;20033;-70
2023/11/06 06:50:50;;;;;;;7.07;1.50;;;;;;;;;;5045926;28;20060;-70
2023/11/06 06:53:15;;;;;;;6.95;2.20;;;;;;;;;;5050232;28;20477;-70
2023/11/06 06:55:41;;;;;;;8.20;1.90;;;;;;;;;;5035721;28;20021;-70
2023/11/06 06:58:06;;;;;;;7.60;1.60;;;;;;;;;;5050667;28;20493;-70
2023/11/06 07:00:32;;;;;;;6.60;1.67;;;;;;;;;;5056657;28;20024;-70
2023/11/06 07:02:58;;;;;;;6.57;1.75;;;;;;;;;;5038603;28;20439;-70
2023/11/06 07:05:23;;;;;;;10.20;2.08;;;;;;;;;;5021869;28;20106;-70
2023/11/06 07:07:49;;;;;;;6.68;1.70;;;;;;;;;;5038304;28;20040;-70
2023/11/06 07:10:14;;;;;;;6.35;1.92;;;;;;;;;;5056608;28;20100;-70
2023/11/06 07:12:40;;;;;;;13.40;2.53;;;;;;;;;;5056324;28;20401;-70
2023/11/06 07:15:07;;;;;;;6.57;1.80;;;;;;;;;;5056329;28;20041;-70
2023/11/06 07:17:32;;;;;;;7.40;1.85;;;;;;;;;;5055744;28;20531;-70
2023/11/06 07:19:57;;;;;;;5.63;1.60;;;;;;;;;;5056141;28;20025;-70
2023/11/06 07:22:23;;;;;;;11.85;2.10;;;;;;;;;;5056830;28;20020;-70
2023/11/06 07:24:48;;;;;;;6.43;2.00;;;;;;;;;;5038597;28;20041;-70
2023/11/06 07:27:13;;;;;;;7.93;2.03;;;;;;;;;;5055743;28;20496;-70
2023/11/06 07:29:39;;;;;;;7.38;2.22;;;;;;;;;;5055394;28;20017;-70
2023/11/06 07:32:05;;;;;;;14.73;2.20;;;;;;;;;;5056301;28;20485;-70
2023/11/06 07:34:30;;;;;;;10.05;2.13;;;;;;;;;;5038111;28;20017;-70
2023/11/06 07:36:56;;;;;;;4.90;2.22;;;;;;;;;;5055581;28;20031;-70
2023/11/06 07:39:21;;;;;;;15.70;2.13;;;;;;;;;;5055405;28;20085;-70
2023/11/06 07:41:46;;;;;;;7.85;2.03;;;;;;;;;;5037633;28;20024;-70
2023/11/06 07:44:12;;;;;;;8.82;1.77;;;;;;;;;;5037620;28;20398;-70
2023/11/06 07:46:37;;;;;;;7.75;2.03;;;;;;;;;;5054098;28;20100;-70
2023/11/06 07:49:03;;;;;;;7.47;2.05;;;;;;;;;;5055014;28;20056;-70
2023/11/06 07:51:28;;;;;;;7.20;1.80;;;;;;;;;;5037640;28;20025;-70
2023/11/06 07:53:53;;;;;;;10.52;2.45;;;;;;;;;;5055058;28;20016;-70
2023/11/06 07:56:19;;;;;;;10.02;2.53;;;;;;;;;;5055296;28;20025;-70
2023/11/06 07:58:45;;;;;;;6.43;2.08;;;;;;;;;;5037034;28;20083;-70
2023/11/06 08:01:10;;;;;;;10.27;1.92;;;;;;;;;;5037607;28;20052;-70
2023/11/06 08:03:36;;;;;;;7.15;1.88;;;;;;;;;;5055044;28;20033;-70
2023/11/06 08:06:02;;;;;;;9.43;2.00;;;;;;;;;;5054919;28;20017;-69
2023/11/06 08:08:27;;;;;;;13.40;2.55;;;;;;;;;;5037028;28;20021;-70
2023/11/06 08:10:53;;;;;;;6.43;3.17;;;;;;;;;;5054671;28;20522;-70
2023/11/06 08:13:18;;;;;;;14.60;2.83;;;;;;;;;;5037845;28;20030;-70
2023/11/06 08:15:44;;;;;;;3.90;2.25;;;;;;;;;;5026015;28;20394;-70
2023/11/06 08:18:09;;;;;;;8.48;2.28;;;;;;;;;;5016766;28;20013;-70
2023/11/06 08:20:34;;;;;;;12.98;3.17;;;;;;;;;;5041565;28;20017;-70
2023/11/06 08:23:00;;;;;;;11.07;2.90;;;;;;;;;;5054859;28;20471;-70
2023/11/06 08:25:26;;;;;;;15.07;2.72;;;;;;;;;;5054600;28;20025;-70
2023/11/06 08:27:52;;;;;;;11.60;3.03;;;;;;;;;;5050056;28;20042;-70
2023/11/06 08:30:18;;;;;;;10.27;2.22;;;;;;;;;;5025073;28;20394;-70
2023/11/06 08:32:43;;;;;;;8.00;1.92;;;;;;;;;;5016072;28;20025;-70
2023/11/06 08:35:09;;;;;;;12.30;2.70;;;;;;;;;;5036838;28;20025;-70
2023/11/06 08:37:34;;;;;;;4.10;2.17;;;;;;;;;;5036493;28;20506;-70
2023/11/06 08:39:59;;;;;;;9.60;2.05;;;;;;;;;;5053962;28;20102;-70
2023/11/06 08:42:24;;;;;;;9.63;2.13;;;;;;;;;;5053863;28;20104;-70
2023/11/06 08:44:50;;;;;;;8.30;1.70;;;;;;;;;;5051797;28;20024;-70
2023/11/06 08:47:15;;;;;;;6.70;1.92;;;;;;;;;;5053970;28;20028;-70
2023/11/06 08:49:41;;;;;;;9.32;2.40;;;;;;;;;;5051697;28;20017;-70
2023/11/06 08:52:07;;;;;;;12.90;2.58;;;;;;;;;;5000037;28;20076;-70
2023/11/06 08:54:34;;;;;;;5.20;1.85;;;;;;;;;;5016081;28;20021;-70
2023/11/06 08:57:00;;;;;;;13.95;2.35;;;;;;;;;;5029788;28;20034;-70
2023/11/06 08:59:25;;;;;;;9.88;2.22;;;;;;;;;;5035446;28;20028;-69
2023/11/06 09:01:51;;;;;;;12.88;2.75;;;;;;;;;;5052787;28;20036;-70
2023/11/06 09:04:17;;;;;;;18.52;3.20;;;;;;;;;;5034894;28;20055;-70
2023/11/06 09:06:42;;;;;;;16.83;2.45;;;;;;;;;;5036502;28;20022;-69
2023/11/06 09:09:08;;;;;;;15.93;2.97;;;;;;;;;;5033672;28;20394;-70
2023/11/06 09:11:38;;;;;;;7.68;2.40;;;;;;;;;;5021455;28;20025;-70
2023/11/06 09:14:03;;;;;;;11.55;2.50;;;;;;;;;;5035305;28;20028;-69
2023/11/06 09:16:33;;;;;;;13.43;3.05;;;;;;;;;;5035546;28;20025;-70
2023/11/06 09:18:58;;;;;;;15.15;2.65;;;;;;;;;;5015969;28;20025;-70
2023/11/06 09:21:24;;;;;;;2.85;1.73;;;;;;;;;;5050966;28;20048;-70
2023/11/06 09:23:49;;;;;;;6.88;1.92;;;;;;;;;;5035778;28;20393;-70
2023/11/06 09:26:15;;;;;;;7.88;2.15;;;;;;;;;;5035055;28;20066;-69
2023/11/06 09:28:40;;;;;;;10.75;3.00;;;;;;;;;;5033411;28;20391;-70
2023/11/06 09:31:05;;;;;;;12.48;2.90;;;;;;;;;;5046463;28;20036;-69
2023/11/06 09:33:31;;;;;;;8.13;2.72;;;;;;;;;;5033612;28;20036;-70
2023/11/06 09:35:56;;;;;;;9.35;2.65;;;;;;;;;;5033737;28;20025;-69
2023/11/06 09:38:21;;;;;;;8.88;2.95;;;;;;;;;;5052397;28;20025;-70
2023/11/06 09:40:47;;;;;;;13.50;3.00;;;;;;;;;;5051995;28;20021;-69
2023/11/06 09:43:13;;;;;;;14.38;2.95;;;;;;;;;;5050698;28;20437;-69
2023/11/06 09:45:38;;;;;;;11.63;3.13;;;;;;;;;;5044422;28;20037;-70
2023/11/06 09:48:06;;;;;;;14.10;3.47;;;;;;;;;;5052271;28;20496;-69
2023/11/06 09:50:32;;;;;;;12.82;3.05;;;;;;;;;;5033774;28;20032;-69
2023/11/06 09:52:57;;;;;;;12.25;3.20;;;;;;;;;;5052079;28;20017;-69
2023/11/06 09:55:22;;;;;;;17.50;3.20;;;;;;;;;;5051705;28;20483;-69
2023/11/06 09:57:49;;;;;;;11.45;3.08;;;;;;;;;;5038697;28;20029;-69
2023/11/06 10:00:20;;;;;;;11.77;2.97;;;;;;;;;;5040072;28;20057;-69
2023/11/06 10:02:48;;;;;;;16.13;3.92;;;;;;;;;;5014904;28;20483;-69
2023/11/06 10:05:15;;;;;;;12.43;3.00;;;;;;;;;;5030188;28;20552;-69
2023/11/06 10:07:42;;;;;;;17.90;2.95;;;;;;;;;;5032339;28;20057;-70
2023/11/06 10:10:12;;;;;;;9.05;2.80;;;;;;;;;;5030808;28;20017;-69
2023/11/06 10:12:37;;;;;;;7.28;2.80;;;;;;;;;;5048428;28;20469;-68
2023/11/06 10:15:06;;;;;;;9.25;2.95;;;;;;;;;;5042741;28;20045;-69
2023/11/06 10:17:31;;;;;;;13.50;3.22;;;;;;;;;;5050389;28;20967;-69
2023/11/06 10:20:06;;;;;;;10.32;2.72;;;;;;;;;;5031821;28;20056;-69
2023/11/06 10:22:33;;;;;;;17.10;3.22;;;;;;;;;;5031354;28;20036;-68
2023/11/06 10:24:58;;;;;;;12.70;2.92;;;;;;;;;;5051661;28;20040;-69
2023/11/06 10:27:29;;;;;;;9.57;2.75;;;;;;;;;;5051705;28;20021;-69
2023/11/06 10:30:04;;;;;;;16.38;3.10;;;;;;;;;;5033608;28;20478;-69
2023/11/06 10:32:29;;;;;;;14.07;3.63;;;;;;;;;;5050991;28;20024;-69
2023/11/06 10:34:59;;;;;;;8.98;3.83;;;;;;;;;;5046677;28;20021;-69
2023/11/06 10:37:27;;;;;;;15.35;3.83;;;;;;;;;;5013621;28;20021;-69
2023/11/06 10:39:53;;;;;;;15.00;3.42;;;;;;;;;;5031414;28;20029;-69
2023/11/06 10:42:21;;;;;;;12.82;3.88;;;;;;;;;;5031475;28;20025;-69
2023/11/06 10:44:55;;;;;;;11.40;3.47;;;;;;;;;;5048850;28;20061;-69
2023/11/06 10:47:31;;;;;;;7.88;4.03;;;;;;;;;;5019106;28;20040;-69
2023/11/06 10:50:11;;;;;;;19.05;4.20;;;;;;;;;;5031403;28;20036;-69
2023/11/06 10:52:39;;;;;;;11.38;4.18;;;;;;;;;;5039808;28;20027;-70
2023/11/06 10:55:06;;;;;;;14.50;4.25;;;;;;;;;;5034674;28;20735;-69
2023/11/06 10:57:35;;;;;;;14.20;4.57;;;;;;;;;;5033549;28;20029;-69
2023/11/06 11:00:07;;;;;;;12.15;4.47;;;;;;;;;;5017461;28;20052;-69
2023/11/06 11:02:45;;;;;;;10.70;4.15;;;;;;;;;;5031071;28;20087;-69
2023/11/06 11:05:14;;;;;;;18.40;5.25;;;;;;;;;;5050310;28;20021;-70
2023/11/06 11:07:45;;;;;;;14.23;5.47;;;;;;;;;;5032141;28;20053;-69
2023/11/06 11:10:13;;;;;;;17.98;5.30;;;;;;;;;;5051113;28;20028;-69
2023/11/06 11:12:40;;;;;;;14.38;4.97;;;;;;;;;;5032357;28;20029;-69
2023/11/06 11:15:06;;;;;;;15.45;4.30;;;;;;;;;;5065926;23;20071;-71
2023/11/06 11:17:32;;;;;;;20.38;4.82;;;;;;;;;;5053330;28;20223;-72
2023/11/06 11:20:03;;;;;;;12.02;3.33;;;;;;;;;;5053030;28;20540;-72
2023/11/06 11:22:31;;;;;;;7.55;3.50;;;;;;;;;;5074402;28;20039;-72
2023/11/06 11:24:59;;;;;;;9.45;3.38;;;;;;;;;;5074760;28;20028;-72
2023/11/06 11:27:27;;;;;;;14.30;3.35;;;;;;;;;;5057313;28;20024;-72
2023/11/06 11:29:56;;;;;;;12.95;2.97;;;;;;;;;;5056665;28;20044;-72
2023/11/06 11:32:27;;;;;;;17.60;3.53;;;;;;;;;;5074515;28;20064;-72
2023/11/06 11:34:57;;;;;;;15.07;3.60;;;;;;;;;;5056762;28;20392;-72
2023/11/06 11:37:29;;;;;;;7.78;2.50;;;;;;;;;;5074959;28;20039;-72
2023/11/06 11:39:56;;;;;;;6.05;2.22;;;;;;;;;;5073797;28;20020;-72
2023/11/06 11:42:22;;;;;;;11.32;2.33;;;;;;;;;;5070829;28;20028;-72
2023/11/06 11:45:07;;;;;;;4.78;1.95;;;;;;;;;;5036723;28;20516;-71
2023/11/06 11:47:48;;;;;;;8.35;1.80;;;;;;;;;;5049137;28;20507;-72
2023/11/06 11:50:39;;;;;;;4.68;1.80;;;;;;;;;;5054543;28;20115;-72
2023/11/06 11:53:05;;;;;;;10.75;2.00;;;;;;;;;;5054146;28;20044;-72
2023/11/06 11:55:31;;;;;;;7.80;1.67;;;;;;;;;;5065035;28;20031;-72
2023/11/06 11:58:06;;;;;;;6.90;1.77;;;;;;;;;;5059456;28;20039;-72
2023/11/06 12:00:36;;;;;;;7.18;1.55;;;;;;;;;;5047608;28;20027;-72
2023/11/06 12:03:08;;;;;;;14.02;2.55;;;;;;;;;;5062390;28;20028;-72
2023/11/06 12:05:36;;;;;;;6.35;1.92;;;;;;;;;;5063288;28;20021;-72
2023/11/06 12:08:26;;;;;;;7.38;1.45;;;;;;;;;;5056440;28;20123;-72
2023/11/06 12:10:52;;;;;;;11.30;1.70;;;;;;;;;;5043450;28;20107;-72
2023/11/06 12:13:22;;;;;;;11.57;1.70;;;;;;;;;;5055486;28;20445;-72
2023/11/06 12:15:49;;;;;;;5.70;1.70;;;;;;;;;;5036260;28;20024;-72
2023/11/06 12:18:16;;;;;;;5.95;1.33;;;;;;;;;;5056446;28;20089;-71
2023/11/06 12:20:42;;;;;;;8.60;2.13;;;;;;;;;;5055853;28;20429;-72
2023/11/06 12:23:08;;;;;;;11.60;2.00;;;;;;;;;;5055952;28;20016;-72
2023/11/06 12:25:34;;;;;;;7.03;1.70;;;;;;;;;;5073832;28;20033;-72
2023/11/06 12:28:07;;;;;;;7.28;1.67;;;;;;;;;;5073397;28;20025;-71
2023/11/06 12:30:38;;;;;;;4.03;1.20;;;;;;;;;;5047668;28;20033;-72
2023/11/06 12:33:14;;;;;;;4.72;1.75;;;;;;;;;;5051570;28;20028;-72
2023/11/06 12:35:40;;;;;;;4.88;1.38;;;;;;;;;;5056432;28;20090;-72
2023/11/06 12:38:06;;;;;;;2.85;1.30;;;;;;;;;;5074085;28;20032;-72
2023/11/06 12:40:32;;;;;;;8.30;2.00;;;;;;;;;;5073994;28;20118;-72
2023/11/06 12:43:02;;;;;;;5.35;1.52;;;;;;;;;;5055582;28;20028;-72
2023/11/06 12:45:38;;;;;;;7.38;1.60;;;;;;;;;;5050075;28;20382;-72
2023/11/06 12:48:23;;;;;;;6.72;2.20;;;;;;;;;;5055914;28;20059;-72
2023/11/06 12:51:09;;;;;;;6.05;2.45;;;;;;;;;;5055485;28;20481;-72
2023/11/06 12:53:36;;;;;;;6.60;1.48;;;;;;;;;;5048206;28;20033;-72
2023/11/06 12:56:02;;;;;;;6.03;2.00;;;;;;;;;;5035550;28;20335;-71
2023/11/06 12:58:28;;;;;;;12.30;2.10;;;;;;;;;;5034914;28;20043;-71
2023/11/06 13:00:55;;;;;;;4.72;1.58;;;;;;;;;;5055387;28;20478;-71
2023/11/06 13:03:27;;;;;;;10.43;1.95;;;;;;;;;;5018418;28;20115;-71
2023/11/06 13:05:56;;;;;;;6.53;1.83;;;;;;;;;;5035406;28;20488;-72
2023/11/06 13:08:23;;;;;;;7.75;1.50;;;;;;;;;;5035551;28;20103;-72
2023/11/06 13:10:48;;;;;;;6.95;1.52;;;;;;;;;;5069910;28;20493;-72
2023/11/06 13:13:14;;;;;;;4.32;1.70;;;;;;;;;;5073109;28;20074;-72
2023/11/06 13:15:40;;;;;;;9.20;2.03;;;;;;;;;;5071608;28;20021;-72
2023/11/06 13:18:07;;;;;;;7.90;1.80;;;;;;;;;;5073065;28;20029;-72
2023/11/06 13:20:36;;;;;;;5.30;1.60;;;;;;;;;;5072719;28;20392;-72
2023/11/06 13:23:01;;;;;;;8.88;1.23;;;;;;;;;;5054949;28;20021;-72
2023/11/06 13:25:28;;;;;;;1.52;1.30;;;;;;;;;;5038031;28;20025;-72
2023/11/06 13:27:56;;;;;;;4.22;1.42;;;;;;;;;;5053753;28;20485;-73
2023/11/06 13:30:22;;;;;;;2.53;1.45;;;;;;;;;;5054673;28;20039;-72
2023/11/06 13:32:50;;;;;;;4.28;1.35;;;;;;;;;;5054302;28;20020;-72
2023/11/06 13:35:17;;;;;;;11.00;1.55;;;;;;;;;;5064084;28;20025;-72
2023/11/06 13:37:45;;;;;;;6.15;1.48;;;;;;;;;;5053430;28;20494;-72
2023/11/06 13:40:25;;;;;;;2.78;1.00;;;;;;;;;;5035582;28;20563;-72
2023/11/06 13:42:51;;;;;;;8.25;1.50;;;;;;;;;;5035699;28;20021;-72
2023/11/06 13:45:17;;;;;;;7.28;1.50;;;;;;;;;;5052039;28;20470;-72
2023/11/06 13:47:42;;;;;;;6.07;1.58;;;;;;;;;;5064039;28;20031;-72
2023/11/06 13:50:22;;;;;;;2.70;1.33;;;;;;;;;;5073313;28;20500;-71
2023/11/06 13:52:47;;;;;;;6.40;1.52;;;;;;;;;;5072809;28;20024;-72
2023/11/06 13:55:17;;;;;;;4.47;1.25;;;;;;;;;;5073187;28;20033;-72
2023/11/06 13:57:44;;;;;;;3.08;1.17;;;;;;;;;;5072509;28;20028;-72
2023/11/06 14:00:27;;;;;;;1.48;1.23;;;;;;;;;;5072864;28;20048;-72
2023/11/06 14:02:53;;;;;;;2.15;1.27;;;;;;;;;;5053414;28;20111;-72
2023/11/06 14:05:19;;;;;;;1.75;1.30;;;;;;;;;;5034631;28;20487;-72
2023/11/06 14:07:45;;;;;;;4.32;1.33;;;;;;;;;;5052768;28;20028;-72
2023/11/06 14:10:24;;;;;;;7.90;2.10;;;;;;;;;;5068160;28;20029;-72
2023/11/06 14:12:50;;;;;;;6.80;1.85;;;;;;;;;;5072888;28;20024;-72
2023/11/06 14:15:15;;;;;;;4.70;1.67;;;;;;;;;;5049429;28;20142;-73
2023/11/06 14:17:40;;;;;;;3.72;1.90;;;;;;;;;;5046020;28;20094;-72
2023/11/06 14:20:10;;;;;;;6.10;2.40;;;;;;;;;;5061420;28;20053;-72
2023/11/06 14:22:35;;;;;;;5.50;1.88;;;;;;;;;;5042262;28;20417;-72
2023/11/06 14:25:03;;;;;;;7.00;1.52;;;;;;;;;;5057884;28;20033;-72
2023/11/06 14:27:29;;;;;;;5.53;1.95;;;;;;;;;;5057597;28;20059;-72
2023/11/06 14:29:54;;;;;;;7.63;1.88;;;;;;;;;;5052390;28;20029;-73
2023/11/06 14:32:19;;;;;;;7.15;3.53;;;;;;;;;;5067512;28;20028;-72
2023/11/06 14:34:47;;;;;;;3.60;1.92;;;;;;;;;;5069669;28;20028;-72
2023/11/06 14:37:12;;;;;;;5.70;2.00;;;;;;;;;;5050909;28;20025;-73